sensor_id;sensor_type;location;lat;lon;timestamp;pressure;altitude;pressure_sealevel;temperature;humidity
24302;BME280;12421;49.732;20.078;2023-03-25T00:06:59;95818.03;;;11.33;73.50
24302;BME280;12421;49.732;20.078;2023-03-25T00:17:03;95823.75;;;11.07;73.50
24302;BME280;12421;49.732;20.078;2023-03-25T00:27:06;95814.09;;;10.84;74.17
24302;BME280;12421;49.732;20.078;2023-03-25T00:37:09;95801.42;;;10.74;74.30
24302;BME280;12421;49.732;20.078;2023-03-25T00:47:12;95785.78;;;10.62;74.93
24302;BME280;12421;49.732;20.078;2023-03-25T00:57:20;95770.36;;;10.55;75.42
24302;BME280;12421;49.732;20.078;2023-03-25T01:07:24;95756.02;;;10.60;75.36
24302;BME280;12421;49.732;20.078;2023-03-25T01:17:27;95750.40;;;10.42;74.97
24302;BME280;12421;49.732;20.078;2023-03-25T01:27:30;95748.44;;;10.25;75.53
24302;BME280;12421;49.732;20.078;2023-03-25T01:37:34;95751.72;;;10.15;76.07
24302;BME280;12421;49.732;20.078;2023-03-25T01:47:38;95744.92;;;10.20;76.41
24302;BME280;12421;49.732;20.078;2023-03-25T01:57:43;95733.08;;;10.23;76.66
24302;BME280;12421;49.732;20.078;2023-03-25T02:07:48;95725.35;;;10.35;76.66
24302;BME280;12421;49.732;20.078;2023-03-25T02:18:14;95723.40;;;10.48;76.55
24302;BME280;12421;49.732;20.078;2023-03-25T02:49:17;95740.44;;;10.53;79.34
24302;BME280;12421;49.732;20.078;2023-03-25T02:59:24;95732.45;;;10.56;79.88
24302;BME280;12421;49.732;20.078;2023-03-25T03:09:41;95738.80;;;10.66;80.30
24302;BME280;12421;49.732;20.078;2023-03-25T03:19:57;95744.20;;;10.62;80.24
24302;BME280;12421;49.732;20.078;2023-03-25T03:30:12;95747.72;;;10.44;80.90
24302;BME280;12421;49.732;20.078;2023-03-25T03:40:20;95755.55;;;10.58;81.31
24302;BME280;12421;49.732;20.078;2023-03-25T03:50:30;95768.07;;;10.73;80.92
24302;BME280;12421;49.732;20.078;2023-03-25T04:00:41;95775.80;;;10.73;80.68
24302;BME280;12421;49.732;20.078;2023-03-25T04:10:53;95785.10;;;10.67;80.90
24302;BME280;12421;49.732;20.078;2023-03-25T04:21:01;95777.67;;;10.70;81.03
24302;BME280;12421;49.732;20.078;2023-03-25T04:31:14;95785.95;;;10.63;81.17
24302;BME280;12421;49.732;20.078;2023-03-25T04:41:18;95793.74;;;10.60;81.28
24302;BME280;12421;49.732;20.078;2023-03-25T04:51:21;95790.42;;;10.48;81.69
24302;BME280;12421;49.732;20.078;2023-03-25T05:01:27;95796.76;;;10.35;82.70
24302;BME280;12421;49.732;20.078;2023-03-25T05:11:36;95811.04;;;10.39;83.42
24302;BME280;12421;49.732;20.078;2023-03-25T05:21:41;95818.05;;;10.45;82.84
24302;BME280;12421;49.732;20.078;2023-03-25T05:31:45;95832.71;;;10.48;82.11
24302;BME280;12421;49.732;20.078;2023-03-25T05:41:48;95847.67;;;10.39;80.69
24302;BME280;12421;49.732;20.078;2023-03-25T05:51:53;95850.45;;;10.40;80.60
24302;BME280;12421;49.732;20.078;2023-03-25T06:01:58;95852.70;;;10.36;79.87
24302;BME280;12421;49.732;20.078;2023-03-25T06:12:02;95862.61;;;10.39;80.19
24302;BME280;12421;49.732;20.078;2023-03-25T06:22:09;95873.20;;;10.43;80.49
24302;BME280;12421;49.732;20.078;2023-03-25T06:32:13;95885.91;;;10.59;80.63
24302;BME280;12421;49.732;20.078;2023-03-25T06:42:17;95892.15;;;10.81;79.97
24302;BME280;12421;49.732;20.078;2023-03-25T06:52:53;95904.21;;;10.82;79.70
24302;BME280;12421;49.732;20.078;2023-03-25T07:02:56;95902.92;;;10.72;79.86
24302;BME280;12421;49.732;20.078;2023-03-25T07:13:03;95900.05;;;10.80;80.28
24302;BME280;12421;49.732;20.078;2023-03-25T07:23:06;95900.63;;;10.97;80.24
24302;BME280;12421;49.732;20.078;2023-03-25T07:33:10;95894.70;;;11.19;79.97
24302;BME280;12421;49.732;20.078;2023-03-25T07:43:13;95893.48;;;11.36;79.47
24302;BME280;12421;49.732;20.078;2023-03-25T07:53:18;95896.77;;;11.55;78.96
24302;BME280;12421;49.732;20.078;2023-03-25T08:03:22;95897.08;;;11.90;78.13
24302;BME280;12421;49.732;20.078;2023-03-25T08:13:25;95891.09;;;12.37;76.16
24302;BME280;12421;49.732;20.078;2023-03-25T08:23:28;95889.84;;;12.77;74.11
24302;BME280;12421;49.732;20.078;2023-03-25T08:33:32;95887.91;;;13.05;73.20
24302;BME280;12421;49.732;20.078;2023-03-25T08:43:36;95898.77;;;13.31;71.90
24302;BME280;12421;49.732;20.078;2023-03-25T08:53:39;95899.28;;;13.40;71.01
24302;BME280;12421;49.732;20.078;2023-03-25T09:03:42;95892.95;;;13.58;70.96
24302;BME280;12421;49.732;20.078;2023-03-25T09:13:46;95886.64;;;13.92;69.78
24302;BME280;12421;49.732;20.078;2023-03-25T09:23:49;95876.13;;;14.41;68.09
24302;BME280;12421;49.732;20.078;2023-03-25T09:33:52;95862.22;;;14.72;65.22
24302;BME280;12421;49.732;20.078;2023-03-25T09:44:21;95849.13;;;14.65;65.54
24302;BME280;12421;49.732;20.078;2023-03-25T09:54:30;95832.69;;;15.23;63.80
24302;BME280;12421;49.732;20.078;2023-03-25T10:15:43;95804.13;;;16.28;59.29
24302;BME280;12421;49.732;20.078;2023-03-25T10:25:58;95788.45;;;16.62;57.09
24302;BME280;12421;49.732;20.078;2023-03-25T10:36:05;95780.02;;;16.46;56.71
24302;BME280;12421;49.732;20.078;2023-03-25T10:46:27;95769.81;;;16.21;56.62
24302;BME280;12421;49.732;20.078;2023-03-25T10:56:34;95758.65;;;16.21;55.79
24302;BME280;12421;49.732;20.078;2023-03-25T11:06:41;95736.80;;;16.49;53.77
24302;BME280;12421;49.732;20.078;2023-03-25T11:16:53;95728.73;;;16.74;51.29
24302;BME280;12421;49.732;20.078;2023-03-25T11:26:58;95731.77;;;16.57;51.71
24302;BME280;12421;49.732;20.078;2023-03-25T11:37:20;95726.05;;;16.69;51.09
24302;BME280;12421;49.732;20.078;2023-03-25T11:47:28;95713.41;;;16.89;50.81
24302;BME280;12421;49.732;20.078;2023-03-25T11:57:38;95704.73;;;16.86;49.32
24302;BME280;12421;49.732;20.078;2023-03-25T12:07:47;95707.18;;;16.63;49.70
24302;BME280;12421;49.732;20.078;2023-03-25T12:18:18;95700.74;;;16.48;49.48
24302;BME280;12421;49.732;20.078;2023-03-25T13:09:22;95731.99;;;16.09;49.61
24302;BME280;12421;49.732;20.078;2023-03-25T13:19:30;95771.05;;;14.72;50.77
24302;BME280;12421;49.732;20.078;2023-03-25T13:29:45;95780.09;;;13.62;54.84
24302;BME280;12421;49.732;20.078;2023-03-25T13:50:14;95758.91;;;13.06;58.15
24302;BME280;12421;49.732;20.078;2023-03-25T14:00:37;95762.67;;;12.91;58.49
24302;BME280;12421;49.732;20.078;2023-03-25T14:21:31;95754.71;;;12.41;60.86
24302;BME280;12421;49.732;20.078;2023-03-25T14:31:37;95743.40;;;12.51;61.50
24302;BME280;12421;49.732;20.078;2023-03-25T14:42:08;95740.06;;;12.74;60.66
24302;BME280;12421;49.732;20.078;2023-03-25T14:52:17;95729.36;;;12.73;59.50
24302;BME280;12421;49.732;20.078;2023-03-25T15:02:29;95727.55;;;12.66;59.42
24302;BME280;12421;49.732;20.078;2023-03-25T15:12:36;95727.35;;;12.71;59.09
24302;BME280;12421;49.732;20.078;2023-03-25T15:22:41;95729.50;;;12.56;58.69
24302;BME280;12421;49.732;20.078;2023-03-25T15:43:23;95742.41;;;12.07;59.21
24302;BME280;12421;49.732;20.078;2023-03-25T15:53:48;95747.66;;;11.93;59.96
24302;BME280;12421;49.732;20.078;2023-03-25T16:04:33;95747.54;;;11.76;60.27
24302;BME280;12421;49.732;20.078;2023-03-25T16:14:41;95745.27;;;11.55;61.49
24302;BME280;12421;49.732;20.078;2023-03-25T16:24:48;95742.77;;;11.40;62.25
24302;BME280;12421;49.732;20.078;2023-03-25T16:34:52;95750.59;;;11.27;63.48
24302;BME280;12421;49.732;20.078;2023-03-25T16:44:55;95763.28;;;11.20;63.25
24302;BME280;12421;49.732;20.078;2023-03-25T17:05:31;95772.15;;;10.84;63.99
24302;BME280;12421;49.732;20.078;2023-03-25T17:15:35;95795.00;;;10.53;64.71
24302;BME280;12421;49.732;20.078;2023-03-25T17:25:51;95796.41;;;10.35;65.74
24302;BME280;12421;49.732;20.078;2023-03-25T17:35:55;95793.11;;;10.21;66.64
24302;BME280;12421;49.732;20.078;2023-03-25T17:45:59;95805.84;;;9.90;66.99
24302;BME280;12421;49.732;20.078;2023-03-25T17:56:04;95812.17;;;9.41;67.62
24302;BME280;12421;49.732;20.078;2023-03-25T18:06:10;95811.55;;;8.87;68.68
24302;BME280;12421;49.732;20.078;2023-03-25T18:16:19;95814.16;;;8.46;69.56
24302;BME280;12421;49.732;20.078;2023-03-25T18:26:22;95819.00;;;8.03;70.67
24302;BME280;12421;49.732;20.078;2023-03-25T18:36:25;95809.14;;;7.60;71.44
24302;BME280;12421;49.732;20.078;2023-03-25T18:46:28;95820.59;;;7.22;72.13
24302;BME280;12421;49.732;20.078;2023-03-25T18:56:33;95832.30;;;6.87;72.89
24302;BME280;12421;49.732;20.078;2023-03-25T19:06:36;95836.02;;;6.57;73.37
24302;BME280;12421;49.732;20.078;2023-03-25T19:16:41;95845.55;;;6.19;73.73
24302;BME280;12421;49.732;20.078;2023-03-25T19:26:55;95847.63;;;5.68;74.76
24302;BME280;12421;49.732;20.078;2023-03-25T19:37:00;95858.05;;;5.51;75.85
24302;BME280;12421;49.732;20.078;2023-03-25T19:47:07;95861.14;;;5.58;76.72
24302;BME280;12421;49.732;20.078;2023-03-25T19:57:10;95862.47;;;5.64;77.10
24302;BME280;12421;49.732;20.078;2023-03-25T20:07:14;95859.05;;;5.75;77.22
24302;BME280;12421;49.732;20.078;2023-03-25T20:17:18;95855.98;;;5.69;77.15
24302;BME280;12421;49.732;20.078;2023-03-25T20:27:24;95850.59;;;5.48;76.99
24302;BME280;12421;49.732;20.078;2023-03-25T20:37:27;95847.14;;;5.24;77.41
24302;BME280;12421;49.732;20.078;2023-03-25T20:47:30;95846.45;;;4.99;77.84
24302;BME280;12421;49.732;20.078;2023-03-25T20:57:34;95847.70;;;4.67;78.29
24302;BME280;12421;49.732;20.078;2023-03-25T21:07:37;95856.36;;;4.39;78.37
24302;BME280;12421;49.732;20.078;2023-03-25T21:17:43;95861.13;;;4.20;78.32
24302;BME280;12421;49.732;20.078;2023-03-25T21:27:47;95865.70;;;4.04;78.88
24302;BME280;12421;49.732;20.078;2023-03-25T21:37:51;95859.98;;;3.92;79.55
24302;BME280;12421;49.732;20.078;2023-03-25T21:47:54;95862.79;;;3.85;80.45
24302;BME280;12421;49.732;20.078;2023-03-25T21:57:57;95861.58;;;3.88;80.86
24302;BME280;12421;49.732;20.078;2023-03-25T22:08:03;95876.69;;;3.84;80.88
24302;BME280;12421;49.732;20.078;2023-03-25T22:18:06;95885.37;;;3.86;80.82
24302;BME280;12421;49.732;20.078;2023-03-25T22:28:10;95880.52;;;3.83;80.49
24302;BME280;12421;49.732;20.078;2023-03-25T22:38:13;95882.44;;;3.70;80.71
24302;BME280;12421;49.732;20.078;2023-03-25T22:48:16;95887.09;;;3.83;81.41
24302;BME280;12421;49.732;20.078;2023-03-25T22:58:23;95883.41;;;4.01;81.68
24302;BME280;12421;49.732;20.078;2023-03-25T23:08:29;95881.92;;;4.32;81.95
24302;BME280;12421;49.732;20.078;2023-03-25T23:18:34;95888.91;;;4.64;81.48
24302;BME280;12421;49.732;20.078;2023-03-25T23:28:39;95889.63;;;4.92;81.01
24302;BME280;12421;49.732;20.078;2023-03-25T23:38:43;95889.96;;;5.21;80.48
24302;BME280;12421;49.732;20.078;2023-03-25T23:48:47;95889.77;;;5.46;79.54
24302;BME280;12421;49.732;20.078;2023-03-25T23:58:51;95890.77;;;5.53;78.06
